Terminal Aerodrome Forecast
Issued by NWS

Home | Current Version | Previous Version | Text Only | Print | Product List | Glossary On
Versions: 1 2 3 4 5 6 7 8 9 10 11 12 13 14 15 16 17 18 19 20 21 22
324
FTUS41 KPBZ 301720
TAFDUJ
TAF
KDUJ 301720Z 3018/0118 12008KT P6SM OVC022
     FM302200 12005KT 6SM -RA OVC020
     FM010000 13005KT 2SM -RA BR OVC020
     FM010300 13007KT 4SM -RA OVC007
     FM011600 18008KT 6SM -SHRA OVC009=

USA.gov is the U.S. government's official web portal to all federal, state and local government web resources and services.